createdAt,value
2024-03-01T00:02:26.619Z,92.51
2024-03-01T00:04:56.460Z,92.60
2024-03-01T00:07:25.967Z,92.75
2024-03-01T00:09:54.214Z,92.84
2024-03-01T00:12:22.570Z,93.00
2024-03-01T00:14:50.736Z,93.11
2024-03-01T00:17:18.804Z,93.28
2024-03-01T00:19:50.171Z,93.45
2024-03-01T00:22:20.652Z,93.54
2024-03-01T00:24:49.102Z,93.63
2024-03-01T00:27:17.580Z,93.73
2024-03-01T00:29:45.930Z,93.78
2024-03-01T00:32:14.505Z,93.90
2024-03-01T00:34:42.643Z,94.02
2024-03-01T00:37:10.826Z,94.07
2024-03-01T00:39:40.640Z,94.14
2024-03-01T00:42:09.661Z,94.24
2024-03-01T00:44:37.670Z,94.30
2024-03-01T00:47:05.898Z,94.34
2024-03-01T00:49:35.044Z,94.38
2024-03-01T00:52:03.272Z,94.42
2024-03-01T00:54:31.375Z,94.47
2024-03-01T00:57:00.866Z,94.47
2024-03-01T00:59:28.912Z,94.55
2024-03-01T01:06:13.672Z,94.70
2024-03-01T01:08:42.103Z,94.87
2024-03-01T01:11:10.174Z,95.01
2024-03-01T01:13:39.788Z,95.07
2024-03-01T01:16:08.317Z,95.15
2024-03-01T01:18:39.133Z,95.21
2024-03-01T01:21:07.750Z,95.26
2024-03-01T01:23:36.290Z,95.33
2024-03-01T01:26:06.116Z,95.37
2024-03-01T01:28:35.309Z,95.41
2024-03-01T01:31:09.680Z,95.49
2024-03-01T01:33:38.830Z,95.52
2024-03-01T01:36:08.909Z,95.60
2024-03-01T01:38:38.642Z,95.64
2024-03-01T01:41:07.304Z,95.73
2024-03-01T01:43:37.633Z,95.83
2024-03-01T01:46:07.983Z,95.91
2024-03-01T01:48:40.037Z,95.99
2024-03-01T01:51:09.937Z,96.04
2024-03-01T01:53:40.036Z,96.10
2024-03-01T01:56:09.635Z,96.15
2024-03-01T01:58:38.252Z,96.23
2024-03-01T02:01:09.227Z,96.30
2024-03-01T02:03:38.553Z,96.37
2024-03-01T02:06:07.536Z,96.42
2024-03-01T02:08:36.726Z,96.50
2024-03-01T02:11:06.561Z,96.56
2024-03-01T02:13:34.803Z,96.60
2024-03-01T02:16:02.936Z,96.68
2024-03-01T02:18:34.364Z,96.72
2024-03-01T02:21:08.277Z,96.77
2024-03-01T02:23:39.641Z,96.83
2024-03-01T02:26:09.310Z,96.84
2024-03-01T02:28:44.525Z,96.92
2024-03-01T02:31:12.953Z,96.95
2024-03-01T02:33:41.140Z,97.01
2024-03-01T02:36:10.307Z,97.04
2024-03-01T02:38:39.739Z,97.07
2024-03-01T02:41:07.788Z,97.10
2024-03-01T02:43:35.860Z,97.12
2024-03-01T02:46:04.037Z,97.17
2024-03-01T02:48:33.338Z,97.25
2024-03-01T02:51:01.872Z,97.28
2024-03-01T02:53:29.971Z,97.27
2024-03-01T02:55:59.754Z,97.33
2024-03-01T02:58:27.975Z,97.36
2024-03-01T03:00:57.317Z,97.41
2024-03-01T03:03:25.597Z,97.46
2024-03-01T03:05:54.067Z,97.50
2024-03-01T03:08:23.569Z,97.53
2024-03-01T03:10:52.043Z,97.50
2024-03-01T03:13:21.709Z,97.54
2024-03-01T03:15:50.247Z,97.60
2024-03-01T03:18:18.664Z,97.63
2024-03-01T03:20:46.913Z,97.61
2024-03-01T03:23:15.001Z,97.68
2024-03-01T03:25:43.425Z,97.69
2024-03-01T03:28:12.076Z,97.73
2024-03-01T03:30:41.629Z,97.75
2024-03-01T03:33:10.126Z,97.76
2024-03-01T03:35:38.168Z,97.78
2024-03-01T03:38:06.224Z,97.81
2024-03-01T03:40:34.598Z,97.82
2024-03-01T03:43:03.132Z,97.86
2024-03-01T03:45:31.286Z,97.88
2024-03-01T03:48:00.965Z,97.90
2024-03-01T03:50:30.657Z,97.94
2024-03-01T03:52:59.121Z,97.93
2024-03-01T03:55:28.011Z,97.95
2024-03-01T03:57:56.380Z,97.98
2024-03-01T04:00:24.883Z,97.98
2024-03-01T04:02:53.135Z,98.01
2024-03-01T04:05:22.744Z,98.05
2024-03-01T04:07:50.800Z,98.06
2024-03-01T04:10:19.236Z,98.07
2024-03-01T04:12:48.397Z,98.07
2024-03-01T04:15:19.201Z,98.14
2024-03-01T04:17:47.404Z,98.17
2024-03-01T04:20:17.665Z,98.15
2024-03-01T04:22:47.056Z,98.20
2024-03-01T04:25:15.147Z,98.20
2024-03-01T04:27:44.031Z,98.26
2024-03-01T04:30:13.061Z,98.22
2024-03-01T04:32:41.302Z,98.26
2024-03-01T04:35:09.586Z,98.30
2024-03-01T04:37:37.756Z,98.42
2024-03-01T04:40:08.066Z,98.52
2024-03-01T04:42:38.882Z,98.52
2024-03-01T04:45:08.516Z,98.47
2024-03-01T04:47:36.712Z,98.37
2024-03-01T04:50:07.723Z,98.35
2024-03-01T04:52:37.261Z,98.33
2024-03-01T04:55:10.766Z,98.35
2024-03-01T04:57:39.418Z,98.34
2024-03-01T05:00:13.674Z,98.37
2024-03-01T05:02:42.653Z,98.41
2024-03-01T05:05:11.482Z,98.37
2024-03-01T05:07:40.070Z,98.40
2024-03-01T05:10:11.652Z,98.39
2024-03-01T05:12:40.952Z,98.40
2024-03-01T05:15:13.800Z,98.44
2024-03-01T05:17:42.944Z,98.47
2024-03-01T05:20:12.870Z,98.46
2024-03-01T05:22:41.465Z,98.45
2024-03-01T05:25:18.801Z,98.46
2024-03-01T05:27:49.198Z,98.48
2024-03-01T05:30:31.594Z,98.50
2024-03-01T05:33:08.417Z,98.48
2024-03-01T05:35:38.202Z,98.49
2024-03-01T05:38:06.531Z,98.52
2024-03-01T05:40:46.654Z,98.52
2024-03-01T05:43:20.361Z,98.56
2024-03-01T05:45:48.818Z,98.56
2024-03-01T05:48:18.743Z,98.56
2024-03-01T05:50:47.726Z,98.54
2024-03-01T05:53:17.630Z,98.62
2024-03-01T05:55:48.334Z,98.60
2024-03-01T05:58:16.728Z,98.62
2024-03-01T06:00:47.017Z,98.59
2024-03-01T06:03:15.419Z,98.62
2024-03-01T06:05:44.539Z,98.62
2024-03-01T06:08:12.550Z,98.91
2024-03-01T06:10:40.944Z,98.90
2024-03-01T06:13:13.236Z,98.75
2024-03-01T06:15:41.149Z,98.72
2024-03-01T06:18:09.211Z,98.83
2024-03-01T06:20:37.594Z,98.84
2024-03-01T06:23:07.002Z,98.83
2024-03-01T06:25:35.432Z,98.83
2024-03-01T06:28:05.570Z,98.78
2024-03-01T06:30:37.294Z,98.72
2024-03-01T06:33:10.266Z,98.65
2024-03-01T06:35:39.264Z,98.62
2024-03-01T06:38:07.766Z,98.62
2024-03-01T06:40:45.016Z,98.63
2024-03-01T06:43:18.818Z,98.66
2024-03-01T06:45:51.002Z,98.63
2024-03-01T06:48:27.498Z,98.63
2024-03-01T06:51:00.198Z,98.65
2024-03-01T06:53:31.260Z,98.64
2024-03-01T06:56:04.737Z,98.62
2024-03-01T06:58:36.303Z,98.62
2024-03-01T07:01:10.784Z,98.65
2024-03-01T07:03:39.948Z,98.61
2024-03-01T07:06:09.542Z,98.62
2024-03-01T07:08:39.447Z,98.57
2024-03-01T07:11:08.595Z,98.59
2024-03-01T07:13:43.191Z,98.60
2024-03-01T07:16:16.902Z,98.58
2024-03-01T07:18:48.744Z,98.58
2024-03-01T07:21:19.117Z,98.60
2024-03-01T07:23:48.156Z,98.59
2024-03-01T07:26:16.996Z,98.56
2024-03-01T07:28:57.144Z,98.53
2024-03-01T07:31:30.603Z,98.55
2024-03-01T07:34:04.823Z,98.48
2024-03-01T07:36:39.991Z,98.46
2024-03-01T07:39:14.638Z,98.48
2024-03-01T07:41:43.180Z,98.44
2024-03-01T07:44:13.728Z,98.41
2024-03-01T07:46:49.300Z,98.36
2024-03-01T07:49:19.006Z,98.33
2024-03-01T07:51:52.464Z,98.31
2024-03-01T07:54:26.426Z,98.28
2024-03-01T07:57:09.101Z,98.22
2024-03-01T07:59:52.431Z,98.15
2024-03-01T08:02:22.903Z,98.05
2024-03-01T08:04:54.342Z,98.06
2024-03-01T08:07:30.079Z,97.99
2024-03-01T08:10:01.005Z,97.91
2024-03-01T08:12:29.653Z,97.90
2024-03-01T08:15:00.803Z,97.84
2024-03-01T08:17:41.636Z,97.82
2024-03-01T08:20:29.993Z,97.76
2024-03-01T08:23:00.145Z,97.67
2024-03-01T08:25:36.528Z,97.58
2024-03-01T08:28:11.275Z,97.53
2024-03-01T08:31:20.602Z,97.41
2024-03-01T08:34:06.767Z,97.22
2024-03-01T08:36:37.200Z,96.98
2024-03-01T08:39:12.103Z,96.85
2024-03-01T08:41:43.275Z,96.73
2024-03-01T08:44:39.217Z,96.54
2024-03-01T08:47:08.876Z,96.06
2024-03-01T08:50:20.298Z,95.71
2024-03-01T08:53:00.043Z,95.28
2024-03-01T08:55:44.100Z,94.96
2024-03-01T08:58:22.396Z,94.70
2024-03-01T09:00:54.682Z,94.33
2024-03-01T09:03:30.940Z,94.04
2024-03-01T09:06:01.841Z,93.78
2024-03-01T09:08:45.181Z,93.36
2024-03-01T09:11:14.807Z,92.81
2024-03-01T09:13:45.998Z,92.42
2024-03-01T09:16:21.874Z,91.82
2024-03-01T09:18:53.642Z,91.24
2024-03-01T09:22:11.701Z,90.55
2024-03-01T09:24:44.435Z,89.28
2024-03-01T09:27:26.044Z,88.47
2024-03-01T09:30:09.214Z,87.62
2024-03-01T09:32:52.649Z,86.97
2024-03-01T09:35:26.404Z,86.25
2024-03-01T09:38:04.246Z,85.57
2024-03-01T09:41:29.502Z,84.87
2024-03-01T09:44:17.747Z,84.64
2024-03-01T09:47:05.909Z,84.12
2024-03-01T09:50:08.897Z,83.90
2024-03-01T09:52:46.372Z,83.87
2024-03-01T09:55:27.649Z,83.66
2024-03-01T09:58:06.182Z,83.31
2024-03-01T10:00:48.307Z,82.65
2024-03-01T10:03:40.697Z,82.16
2024-03-01T10:06:33.358Z,81.88
2024-03-01T10:09:13.579Z,81.70
2024-03-01T10:11:58.588Z,81.50
2024-03-01T10:14:43.701Z,81.20
2024-03-01T10:17:21.747Z,80.74
2024-03-01T10:20:17.177Z,80.48
2024-03-01T10:22:58.560Z,81.03
2024-03-01T10:25:42.926Z,80.56
2024-03-01T10:28:26.282Z,80.73
2024-03-01T10:31:02.646Z,80.69
2024-03-01T10:33:48.569Z,80.13
2024-03-01T10:36:24.493Z,80.77
2024-03-01T10:39:28.696Z,80.81
2024-03-01T10:42:10.140Z,80.33
2024-03-01T10:44:48.548Z,80.20
2024-03-01T10:47:25.716Z,80.00
2024-03-01T10:50:18.523Z,79.69
2024-03-01T10:52:47.593Z,79.95
2024-03-01T10:55:24.838Z,79.55
2024-03-01T10:57:59.530Z,79.56
2024-03-01T11:00:36.600Z,79.56
2024-03-01T11:03:21.628Z,79.66
2024-03-01T11:06:08.478Z,79.93
2024-03-01T11:08:48.105Z,79.93
2024-03-01T11:11:22.635Z,80.05
2024-03-01T11:13:57.350Z,79.93
2024-03-01T11:16:34.092Z,79.58
2024-03-01T11:19:15.038Z,79.54
2024-03-01T11:21:51.847Z,79.74
2024-03-01T11:24:29.492Z,80.12
2024-03-01T11:27:00.807Z,80.18
2024-03-01T11:29:46.782Z,80.24
2024-03-01T11:32:22.310Z,80.12
2024-03-01T11:35:02.757Z,80.74
2024-03-01T11:37:45.765Z,80.52
2024-03-01T11:40:26.544Z,80.67
2024-03-01T11:43:10.909Z,80.17
2024-03-01T11:46:18.798Z,80.04
2024-03-01T11:49:15.695Z,80.04
2024-03-01T11:52:06.009Z,80.34
2024-03-01T11:55:04.513Z,79.85
2024-03-01T11:57:46.455Z,79.96
2024-03-01T12:00:46.250Z,79.74
2024-03-01T12:03:46.036Z,79.96
2024-03-01T12:06:50.297Z,79.66
2024-03-01T12:09:28.119Z,79.66
2024-03-01T12:12:21.111Z,79.31
2024-03-01T12:15:02.723Z,78.86
2024-03-01T12:17:35.586Z,78.73
2024-03-01T12:20:12.541Z,78.90
2024-03-01T12:23:07.721Z,78.95
2024-03-01T12:25:45.902Z,78.45
2024-03-01T12:28:34.527Z,78.43
2024-03-01T12:31:10.073Z,78.45
2024-03-01T12:33:53.487Z,78.51
2024-03-01T12:36:44.025Z,78.47
2024-03-01T12:39:32.764Z,77.88
2024-03-01T12:42:08.279Z,78.07
2024-03-01T12:44:50.379Z,77.46
2024-03-01T12:47:45.277Z,77.68
2024-03-01T12:50:32.485Z,77.42
2024-03-01T12:53:16.153Z,77.68
2024-03-01T12:55:54.071Z,77.41
2024-03-01T12:58:33.631Z,77.09
2024-03-01T13:01:14.697Z,77.15
2024-03-01T13:03:55.706Z,78.02
2024-03-01T13:06:38.343Z,77.79
2024-03-01T13:09:21.058Z,78.53
2024-03-01T13:12:08.222Z,78.64
2024-03-01T13:14:57.709Z,78.59
2024-03-01T13:17:38.009Z,79.45
2024-03-01T13:20:27.718Z,79.33
2024-03-01T13:23:10.129Z,79.42
2024-03-01T13:25:49.268Z,79.69
2024-03-01T13:28:19.604Z,79.58
2024-03-01T13:30:52.729Z,79.76
2024-03-01T13:33:32.489Z,79.51
2024-03-01T13:36:13.375Z,79.67
2024-03-01T13:39:14.594Z,79.45
2024-03-01T13:41:55.043Z,79.46
2024-03-01T13:44:36.504Z,79.37
2024-03-01T13:47:19.991Z,79.38
2024-03-01T13:49:58.043Z,79.33
2024-03-01T13:52:40.371Z,78.88
2024-03-01T13:55:26.507Z,79.37
2024-03-01T13:58:07.777Z,79.04
2024-03-01T14:00:54.746Z,79.12
2024-03-01T14:03:24.330Z,79.19
2024-03-01T14:05:57.444Z,79.52
2024-03-01T14:08:26.616Z,79.57
2024-03-01T14:10:56.761Z,79.45
2024-03-01T14:13:26.794Z,79.15
2024-03-01T14:16:04.225Z,79.13
2024-03-01T14:18:32.930Z,79.37
2024-03-01T14:21:18.460Z,79.28
2024-03-01T14:23:47.274Z,79.50
2024-03-01T14:26:15.683Z,81.04
2024-03-01T14:28:46.763Z,81.50
2024-03-01T14:31:15.228Z,81.56
2024-03-01T14:33:57.656Z,81.32
2024-03-01T14:36:27.605Z,81.10
2024-03-01T14:38:57.348Z,80.91
2024-03-01T14:41:39.641Z,81.35
2024-03-01T14:44:09.263Z,81.58
2024-03-01T14:46:39.883Z,81.38
2024-03-01T14:49:16.977Z,81.36
2024-03-01T14:51:49.276Z,81.18
2024-03-01T14:54:23.314Z,81.09
2024-03-01T14:56:52.052Z,81.14
2024-03-01T14:59:22.063Z,80.35
2024-03-01T15:01:52.778Z,80.11
2024-03-01T15:04:22.644Z,79.97
2024-03-01T15:06:54.085Z,80.21
2024-03-01T15:09:24.201Z,80.31
2024-03-01T15:11:54.995Z,80.55
2024-03-01T15:14:27.532Z,80.74
2024-03-01T15:17:10.419Z,81.18
2024-03-01T15:19:44.584Z,81.72
2024-03-01T15:22:15.687Z,82.12
2024-03-01T15:24:45.511Z,82.34
2024-03-01T15:27:26.155Z,82.58
2024-03-01T15:29:56.243Z,82.78
2024-03-01T15:32:28.041Z,83.00
2024-03-01T15:34:57.562Z,83.09
2024-03-01T15:37:28.702Z,83.36
2024-03-01T15:39:58.293Z,83.42
2024-03-01T15:42:29.872Z,83.47
2024-03-01T15:45:01.214Z,83.59
2024-03-01T15:47:31.538Z,83.77
2024-03-01T15:50:01.821Z,83.93
2024-03-01T15:52:35.924Z,84.10
2024-03-01T15:55:09.592Z,84.03
2024-03-01T15:57:40.194Z,84.08
2024-03-01T16:00:12.572Z,84.32
2024-03-01T16:02:42.147Z,84.29
2024-03-01T16:05:14.388Z,84.31
2024-03-01T16:07:45.606Z,84.43
2024-03-01T16:10:22.758Z,84.58
2024-03-01T16:12:55.650Z,84.76
2024-03-01T16:15:26.253Z,84.74
2024-03-01T16:17:57.557Z,84.85
2024-03-01T16:20:31.067Z,84.95
2024-03-01T16:23:06.350Z,85.01
2024-03-01T16:25:37.104Z,85.18
2024-03-01T16:28:19.628Z,85.18
2024-03-01T16:30:49.465Z,85.30
2024-03-01T16:33:24.162Z,85.46
2024-03-01T16:36:19.832Z,85.64
2024-03-01T16:38:53.688Z,85.80
2024-03-01T16:41:41.125Z,85.98
2024-03-01T16:44:36.800Z,86.05
2024-03-01T16:47:06.262Z,86.11
2024-03-01T16:49:40.621Z,86.29
2024-03-01T16:52:12.155Z,86.40
2024-03-01T16:54:45.248Z,86.42
2024-03-01T16:57:26.410Z,86.38
2024-03-01T16:59:57.296Z,86.37
2024-03-01T17:02:30.825Z,86.41
2024-03-01T17:05:00.856Z,86.51
2024-03-01T17:07:46.363Z,86.66
2024-03-01T17:10:25.272Z,86.98
2024-03-01T17:13:00.067Z,87.29
2024-03-01T17:15:29.786Z,87.32
2024-03-01T17:17:59.138Z,87.34
2024-03-01T17:20:30.519Z,87.52
2024-03-01T17:22:59.925Z,87.66
2024-03-01T17:25:30.505Z,87.72
2024-03-01T17:27:59.845Z,87.81
2024-03-01T17:30:28.814Z,87.83
2024-03-01T17:32:57.943Z,87.87
2024-03-01T17:35:26.987Z,87.87
2024-03-01T17:37:56.030Z,87.85
2024-03-01T17:40:27.022Z,87.78
2024-03-01T17:42:57.526Z,87.71
2024-03-01T17:45:26.660Z,87.83
2024-03-01T17:47:55.749Z,87.98
2024-03-01T17:50:25.138Z,88.09
2024-03-01T17:52:55.673Z,88.07
2024-03-01T17:55:24.705Z,88.14
2024-03-01T17:57:53.771Z,88.23
2024-03-01T18:00:24.518Z,88.38
2024-03-01T18:02:53.330Z,88.57
2024-03-01T18:05:21.489Z,88.75
2024-03-01T18:07:49.648Z,88.92
2024-03-01T18:10:20.597Z,89.17
2024-03-01T18:12:50.098Z,89.35
2024-03-01T18:15:18.254Z,89.47
2024-03-01T18:17:48.068Z,89.55
2024-03-01T18:20:16.612Z,89.69
2024-03-01T18:22:44.802Z,89.77
2024-03-01T18:25:13.868Z,89.83
2024-03-01T18:27:42.236Z,89.94
2024-03-01T18:30:12.712Z,90.00
2024-03-01T18:32:41.020Z,90.16
2024-03-01T18:35:11.106Z,90.17
2024-03-01T18:37:39.449Z,90.28
2024-03-01T18:40:09.369Z,90.33
2024-03-01T18:42:37.817Z,90.36
2024-03-01T18:45:07.216Z,90.40
2024-03-01T18:47:35.481Z,90.46
2024-03-01T18:50:04.203Z,90.55
2024-03-01T18:52:34.879Z,90.60
2024-03-01T18:55:03.287Z,90.61
2024-03-01T18:57:32.596Z,90.61
2024-03-01T19:00:00.737Z,90.62
2024-03-01T19:02:29.501Z,90.67
2024-03-01T19:05:00.161Z,90.69
2024-03-01T19:07:28.950Z,90.75
2024-03-01T19:09:58.377Z,90.84
2024-03-01T19:12:26.536Z,91.01
2024-03-01T19:14:54.707Z,91.07
2024-03-01T19:17:22.972Z,91.22
2024-03-01T19:19:51.131Z,91.27
2024-03-01T19:22:19.287Z,91.31
2024-03-01T19:24:47.794Z,91.40
2024-03-01T19:27:18.295Z,91.38
2024-03-01T19:29:49.558Z,91.45
2024-03-01T19:32:17.830Z,91.44
2024-03-01T19:34:46.203Z,91.50
2024-03-01T19:37:14.318Z,91.49
2024-03-01T19:39:42.789Z,91.49
2024-03-01T19:42:10.979Z,91.53
2024-03-01T19:44:42.929Z,91.57
2024-03-01T19:47:13.689Z,91.61
2024-03-01T19:49:45.845Z,91.67
2024-03-01T19:52:15.725Z,91.60
2024-03-01T19:54:44.080Z,91.72
2024-03-01T19:57:12.448Z,91.75
2024-03-01T19:59:42.116Z,91.84
2024-03-01T20:02:10.393Z,91.86
2024-03-01T20:04:39.763Z,91.93
2024-03-01T20:07:08.080Z,91.93
2024-03-01T20:09:38.846Z,91.91
2024-03-01T20:12:12.164Z,91.97
2024-03-01T20:14:41.843Z,92.00
2024-03-01T20:17:09.946Z,92.01
2024-03-01T20:19:38.351Z,92.07
2024-03-01T20:22:08.752Z,92.04
2024-03-01T20:24:37.529Z,91.95
2024-03-01T20:27:05.972Z,91.88
2024-03-01T20:29:34.210Z,91.75
2024-03-01T20:32:04.681Z,91.74
2024-03-01T20:34:33.472Z,91.84
2024-03-01T20:37:02.457Z,92.07
2024-03-01T20:39:30.983Z,92.28
2024-03-01T20:42:01.408Z,92.41
2024-03-01T20:44:30.195Z,92.59
2024-03-01T20:46:58.871Z,92.77
2024-03-01T20:49:29.772Z,92.87
2024-03-01T20:52:00.397Z,93.02
2024-03-01T20:54:28.957Z,93.22
2024-03-01T20:56:57.279Z,93.40
2024-03-01T20:59:26.108Z,93.57
2024-03-01T21:01:55.636Z,93.69
2024-03-01T21:04:24.727Z,93.80
2024-03-01T21:06:56.514Z,93.89
2024-03-01T21:09:26.771Z,94.02
2024-03-01T21:11:55.879Z,94.10
2024-03-01T21:14:25.181Z,94.16
2024-03-01T21:16:53.884Z,94.23
2024-03-01T21:19:22.790Z,94.28
2024-03-01T21:24:30.208Z,94.38
2024-03-01T21:27:01.384Z,94.40
2024-03-01T21:29:29.901Z,94.46
2024-03-01T21:31:59.585Z,94.47
2024-03-01T21:34:29.029Z,94.56
2024-03-01T21:36:58.686Z,94.59
2024-03-01T21:39:26.828Z,94.59
2024-03-01T21:41:54.996Z,94.60
2024-03-01T21:44:23.061Z,94.67
2024-03-01T21:46:51.176Z,94.65
2024-03-01T21:49:19.267Z,94.67
2024-03-01T21:51:48.658Z,94.65
2024-03-01T21:54:19.021Z,94.70
2024-03-01T21:56:47.178Z,94.73
2024-03-01T21:59:15.456Z,94.72
2024-03-01T22:01:44.407Z,94.70
2024-03-01T22:04:14.990Z,94.70
2024-03-01T22:06:43.489Z,94.72
2024-03-01T22:09:12.811Z,94.77
2024-03-01T22:11:44.936Z,94.77
2024-03-01T22:14:13.500Z,94.79
2024-03-01T22:16:41.808Z,94.78
2024-03-01T22:19:10.286Z,94.73
2024-03-01T22:21:39.820Z,94.71
2024-03-01T22:24:08.505Z,94.73
2024-03-01T22:26:36.619Z,94.68
2024-03-01T22:29:06.031Z,94.72
2024-03-01T22:31:34.361Z,94.76
2024-03-01T22:34:02.791Z,94.78
2024-03-01T22:36:31.226Z,94.82
2024-03-01T22:38:59.860Z,94.81
2024-03-01T22:41:28.441Z,94.88
2024-03-01T22:43:56.905Z,94.96
2024-03-01T22:46:29.537Z,94.97
2024-03-01T22:49:00.828Z,95.01
2024-03-01T22:51:32.333Z,95.03
2024-03-01T22:54:05.021Z,94.99
2024-03-01T22:56:36.691Z,94.97
2024-03-01T22:59:40.381Z,94.99
2024-03-01T23:02:15.090Z,95.03
2024-03-01T23:04:44.891Z,95.10
2024-03-01T23:07:15.065Z,95.12
2024-03-01T23:09:44.131Z,95.15
2024-03-01T23:12:13.629Z,95.17
2024-03-01T23:14:50.003Z,95.20
2024-03-01T23:17:22.752Z,95.24
2024-03-01T23:19:51.463Z,95.22
2024-03-01T23:22:25.085Z,95.25
2024-03-01T23:24:54.291Z,95.26
2024-03-01T23:27:25.138Z,95.30
2024-03-01T23:29:53.771Z,95.30
2024-03-01T23:32:23.814Z,95.29
2024-03-01T23:35:29.036Z,95.31
2024-03-01T23:37:58.473Z,95.30
2024-03-01T23:40:26.814Z,95.29
2024-03-01T23:42:55.381Z,95.28
2024-03-01T23:45:23.879Z,95.31
2024-03-01T23:47:53.740Z,95.25
2024-03-01T23:50:23.529Z,95.28
2024-03-01T23:52:52.492Z,95.29
2024-03-01T23:55:22.495Z,95.30
2024-03-01T23:57:51.708Z,95.24
